sensor_id;sensor_type;location;lat;lon;timestamp;pressure;altitude;pressure_sealevel;temperature;humidity
46007;BME280;31738;50.188;8.524;2023-03-01T00:01:09;100142.25;;;1.93;60.73
46007;BME280;31738;50.188;8.524;2023-03-01T00:03:35;100131.69;;;1.93;61.02
46007;BME280;31738;50.188;8.524;2023-03-01T00:06:02;100133.31;;;1.94;61.09
46007;BME280;31738;50.188;8.524;2023-03-01T00:08:28;100137.44;;;1.96;60.64
46007;BME280;31738;50.188;8.524;2023-03-01T00:11:05;100136.41;;;1.97;60.84
46007;BME280;31738;50.188;8.524;2023-03-01T00:13:32;100128.47;;;1.97;61.23
46007;BME280;31738;50.188;8.524;2023-03-01T00:15:58;100130.28;;;1.97;61.28
46007;BME280;31738;50.188;8.524;2023-03-01T00:18:23;100130.94;;;1.99;60.97
46007;BME280;31738;50.188;8.524;2023-03-01T00:20:53;100131.97;;;1.98;61.15
46007;BME280;31738;50.188;8.524;2023-03-01T00:23:20;100129.03;;;1.93;61.23
46007;BME280;31738;50.188;8.524;2023-03-01T00:25:45;100132.94;;;1.97;61.29
46007;BME280;31738;50.188;8.524;2023-03-01T00:28:11;100131.13;;;1.97;61.29
46007;BME280;31738;50.188;8.524;2023-03-01T00:30:36;100129.31;;;1.98;61.13
46007;BME280;31738;50.188;8.524;2023-03-01T00:33:02;100123.09;;;1.91;61.25
46007;BME280;31738;50.188;8.524;2023-03-01T00:35:27;100124.03;;;1.98;61.21
46007;BME280;31738;50.188;8.524;2023-03-01T00:37:53;100118.09;;;1.96;61.54
46007;BME280;31738;50.188;8.524;2023-03-01T00:40:27;100115.81;;;1.93;61.49
46007;BME280;31738;50.188;8.524;2023-03-01T00:42:53;100103.41;;;1.93;61.25
46007;BME280;31738;50.188;8.524;2023-03-01T00:45:19;100099.94;;;1.93;61.48
46007;BME280;31738;50.188;8.524;2023-03-01T00:47:44;100098.72;;;1.95;61.44
46007;BME280;31738;50.188;8.524;2023-03-01T00:50:11;100095.91;;;1.97;61.44
46007;BME280;31738;50.188;8.524;2023-03-01T00:52:38;100101.56;;;1.94;61.47
46007;BME280;31738;50.188;8.524;2023-03-01T00:55:05;100097.28;;;1.93;61.75
46007;BME280;31738;50.188;8.524;2023-03-01T00:57:31;100090.97;;;1.94;61.78
46007;BME280;31738;50.188;8.524;2023-03-01T00:59:56;100092.00;;;1.93;61.72
46007;BME280;31738;50.188;8.524;2023-03-01T01:02:22;100102.41;;;1.94;61.98
46007;BME280;31738;50.188;8.524;2023-03-01T01:04:48;100096.09;;;1.95;61.74
46007;BME280;31738;50.188;8.524;2023-03-01T01:07:14;100088.16;;;1.95;61.61
46007;BME280;31738;50.188;8.524;2023-03-01T01:09:40;100091.81;;;1.94;61.78
46007;BME280;31738;50.188;8.524;2023-03-01T01:12:06;100085.31;;;1.97;61.89
46007;BME280;31738;50.188;8.524;2023-03-01T01:14:33;100087.97;;;1.97;61.56
46007;BME280;31738;50.188;8.524;2023-03-01T01:16:59;100079.03;;;1.98;61.84
46007;BME280;31738;50.188;8.524;2023-03-01T01:19:25;100071.13;;;1.98;61.82
46007;BME280;31738;50.188;8.524;2023-03-01T01:21:50;100064.16;;;1.97;61.59
46007;BME280;31738;50.188;8.524;2023-03-01T01:24:17;100064.63;;;2.00;61.35
46007;BME280;31738;50.188;8.524;2023-03-01T01:26:43;100059.13;;;2.02;61.50
46007;BME280;31738;50.188;8.524;2023-03-01T01:29:09;100058.13;;;2.03;61.39
46007;BME280;31738;50.188;8.524;2023-03-01T01:31:36;100059.78;;;2.04;61.68
46007;BME280;31738;50.188;8.524;2023-03-01T01:34:05;100046.56;;;2.04;62.13
46007;BME280;31738;50.188;8.524;2023-03-01T01:36:33;100041.44;;;2.02;62.22
46007;BME280;31738;50.188;8.524;2023-03-01T01:38:59;100036.97;;;2.03;61.98
46007;BME280;31738;50.188;8.524;2023-03-01T01:41:26;100039.59;;;2.03;61.70
46007;BME280;31738;50.188;8.524;2023-03-01T01:44:19;100044.28;;;2.01;61.50
46007;BME280;31738;50.188;8.524;2023-03-01T01:47:05;100042.81;;;1.98;61.79
46007;BME280;31738;50.188;8.524;2023-03-01T01:49:35;100032.00;;;1.78;62.08
46007;BME280;31738;50.188;8.524;2023-03-01T01:52:08;100033.81;;;1.78;61.86
46007;BME280;31738;50.188;8.524;2023-03-01T01:54:42;100037.56;;;1.84;62.05
46007;BME280;31738;50.188;8.524;2023-03-01T01:57:14;100046.13;;;1.86;61.97
46007;BME280;31738;50.188;8.524;2023-03-01T01:59:43;100045.75;;;1.89;62.03
46007;BME280;31738;50.188;8.524;2023-03-01T02:02:11;100048.22;;;1.90;62.02
46007;BME280;31738;50.188;8.524;2023-03-01T02:04:38;100049.03;;;1.91;62.04
46007;BME280;31738;50.188;8.524;2023-03-01T02:07:14;100050.88;;;1.90;62.09
46007;BME280;31738;50.188;8.524;2023-03-01T02:09:46;100051.31;;;1.94;61.79
46007;BME280;31738;50.188;8.524;2023-03-01T02:12:13;100047.66;;;1.95;61.75
46007;BME280;31738;50.188;8.524;2023-03-01T02:14:39;100053.56;;;1.97;61.94
46007;BME280;31738;50.188;8.524;2023-03-01T02:17:04;100049.13;;;1.97;62.10
46007;BME280;31738;50.188;8.524;2023-03-01T02:19:42;100048.28;;;1.97;61.88
46007;BME280;31738;50.188;8.524;2023-03-01T02:24:57;100037.28;;;1.93;61.85
46007;BME280;31738;50.188;8.524;2023-03-01T02:30:29;100030.50;;;1.91;62.11
46007;BME280;31738;50.188;8.524;2023-03-01T02:32:56;100026.69;;;1.93;61.99
46007;BME280;31738;50.188;8.524;2023-03-01T02:35:30;100017.94;;;1.93;62.02
46007;BME280;31738;50.188;8.524;2023-03-01T02:37:58;100015.94;;;1.95;61.66
46007;BME280;31738;50.188;8.524;2023-03-01T02:40:29;100014.09;;;1.95;61.68
46007;BME280;31738;50.188;8.524;2023-03-01T02:42:57;100016.13;;;1.93;61.74
46007;BME280;31738;50.188;8.524;2023-03-01T02:45:23;100015.75;;;1.96;62.00
46007;BME280;31738;50.188;8.524;2023-03-01T02:47:49;100013.91;;;1.97;61.74
46007;BME280;31738;50.188;8.524;2023-03-01T02:50:41;100010.63;;;1.95;61.50
46007;BME280;31738;50.188;8.524;2023-03-01T02:53:13;100002.69;;;1.95;61.74
46007;BME280;31738;50.188;8.524;2023-03-01T02:55:42;99999.69;;;1.98;61.40
46007;BME280;31738;50.188;8.524;2023-03-01T02:58:08;99983.63;;;1.99;61.40
46007;BME280;31738;50.188;8.524;2023-03-01T03:00:37;99981.16;;;1.98;61.82
46007;BME280;31738;50.188;8.524;2023-03-01T03:03:06;99987.25;;;1.98;61.51
46007;BME280;31738;50.188;8.524;2023-03-01T03:05:32;99994.56;;;1.96;61.43
46007;BME280;31738;50.188;8.524;2023-03-01T03:07:59;99995.38;;;1.97;61.60
46007;BME280;31738;50.188;8.524;2023-03-01T03:10:30;99992.13;;;1.95;61.42
46007;BME280;31738;50.188;8.524;2023-03-01T03:13:05;99976.44;;;1.93;62.14
46007;BME280;31738;50.188;8.524;2023-03-01T03:15:31;99976.84;;;1.75;61.45
46007;BME280;31738;50.188;8.524;2023-03-01T03:18:01;99977.66;;;1.76;61.65
46007;BME280;31738;50.188;8.524;2023-03-01T03:20:28;99976.47;;;1.78;61.63
46007;BME280;31738;50.188;8.524;2023-03-01T03:22:56;99972.00;;;1.79;61.62
46007;BME280;31738;50.188;8.524;2023-03-01T03:29:30;99966.81;;;1.71;62.19
46007;BME280;31738;50.188;8.524;2023-03-01T03:31:55;99962.97;;;1.73;61.94
46007;BME280;31738;50.188;8.524;2023-03-01T03:34:21;99957.31;;;1.76;61.94
46007;BME280;31738;50.188;8.524;2023-03-01T03:36:46;99957.31;;;1.76;62.15
46007;BME280;31738;50.188;8.524;2023-03-01T03:39:12;99945.75;;;1.77;62.30
46007;BME280;31738;50.188;8.524;2023-03-01T03:41:37;99951.22;;;1.76;62.02
46007;BME280;31738;50.188;8.524;2023-03-01T03:44:02;99950.22;;;1.77;61.57
46007;BME280;31738;50.188;8.524;2023-03-01T03:46:28;99946.72;;;1.76;61.85
46007;BME280;31738;50.188;8.524;2023-03-01T03:48:53;99942.09;;;1.78;62.03
46007;BME280;31738;50.188;8.524;2023-03-01T03:51:19;99944.72;;;1.78;61.97
46007;BME280;31738;50.188;8.524;2023-03-01T03:53:48;99939.63;;;1.77;61.93
46007;BME280;31738;50.188;8.524;2023-03-01T03:56:15;99943.72;;;1.79;62.00
46007;BME280;31738;50.188;8.524;2023-03-01T03:58:40;99946.53;;;1.78;62.03
46007;BME280;31738;50.188;8.524;2023-03-01T04:01:06;99942.72;;;1.81;61.87
46007;BME280;31738;50.188;8.524;2023-03-01T04:03:32;99938.22;;;1.81;61.96
46007;BME280;31738;50.188;8.524;2023-03-01T04:05:59;99938.03;;;1.83;61.84
46007;BME280;31738;50.188;8.524;2023-03-01T04:08:26;99939.06;;;1.82;62.08
46007;BME280;31738;50.188;8.524;2023-03-01T04:10:56;99940.69;;;1.83;61.64
46007;BME280;31738;50.188;8.524;2023-03-01T04:13:23;99937.44;;;1.81;61.61
46007;BME280;31738;50.188;8.524;2023-03-01T04:15:54;99948.00;;;1.81;61.68
46007;BME280;31738;50.188;8.524;2023-03-01T04:18:21;99949.84;;;1.80;61.76
46007;BME280;31738;50.188;8.524;2023-03-01T04:20:47;99939.63;;;1.77;61.69
46007;BME280;31738;50.188;8.524;2023-03-01T04:23:16;99944.72;;;1.78;61.74
46007;BME280;31738;50.188;8.524;2023-03-01T04:28:28;99953.03;;;1.75;61.61
46007;BME280;31738;50.188;8.524;2023-03-01T04:30:56;99953.03;;;1.75;61.84
46007;BME280;31738;50.188;8.524;2023-03-01T04:33:22;99959.34;;;1.74;61.50
46007;BME280;31738;50.188;8.524;2023-03-01T04:35:48;99944.28;;;1.75;62.05
46007;BME280;31738;50.188;8.524;2023-03-01T04:38:17;99945.47;;;1.72;61.89
46007;BME280;31738;50.188;8.524;2023-03-01T04:40:43;99938.19;;;1.74;62.02
46007;BME280;31738;50.188;8.524;2023-03-01T04:43:10;99933.69;;;1.75;61.86
46007;BME280;31738;50.188;8.524;2023-03-01T04:45:36;99923.50;;;1.72;62.11
46007;BME280;31738;50.188;8.524;2023-03-01T04:48:02;99940.19;;;1.72;62.29
46007;BME280;31738;50.188;8.524;2023-03-01T04:50:28;99938.56;;;1.71;61.93
46007;BME280;31738;50.188;8.524;2023-03-01T04:52:54;99928.78;;;1.72;61.66
46007;BME280;31738;50.188;8.524;2023-03-01T04:55:27;99932.63;;;1.69;62.07
46007;BME280;31738;50.188;8.524;2023-03-01T04:57:54;99927.34;;;1.69;62.01
46007;BME280;31738;50.188;8.524;2023-03-01T05:00:20;99927.34;;;1.69;61.87
46007;BME280;31738;50.188;8.524;2023-03-01T05:02:47;99931.63;;;1.70;62.19
46007;BME280;31738;50.188;8.524;2023-03-01T05:05:14;99931.63;;;1.70;62.32
46007;BME280;31738;50.188;8.524;2023-03-01T05:07:40;99935.28;;;1.69;62.25
46007;BME280;31738;50.188;8.524;2023-03-01T05:10:06;99943.03;;;1.71;62.12
46007;BME280;31738;50.188;8.524;2023-03-01T05:12:31;99938.75;;;1.70;62.47
46007;BME280;31738;50.188;8.524;2023-03-01T05:14:57;99931.00;;;1.68;62.00
46007;BME280;31738;50.188;8.524;2023-03-01T05:17:23;99931.00;;;1.68;62.14
46007;BME280;31738;50.188;8.524;2023-03-01T05:19:49;99925.34;;;1.71;62.14
46007;BME280;31738;50.188;8.524;2023-03-01T05:22:15;99923.50;;;1.72;61.84
46007;BME280;31738;50.188;8.524;2023-03-01T05:24:40;99931.25;;;1.73;61.83
46007;BME280;31738;50.188;8.524;2023-03-01T05:27:06;99933.28;;;1.71;61.83
46007;BME280;31738;50.188;8.524;2023-03-01T05:29:31;99929.63;;;1.72;61.96
46007;BME280;31738;50.188;8.524;2023-03-01T05:32:01;99924.31;;;1.72;61.74
46007;BME280;31738;50.188;8.524;2023-03-01T05:34:33;99924.31;;;1.72;62.02
46007;BME280;31738;50.188;8.524;2023-03-01T05:36:59;99928.78;;;1.72;61.99
46007;BME280;31738;50.188;8.524;2023-03-01T05:39:26;99928.59;;;1.73;61.76
46007;BME280;31738;50.188;8.524;2023-03-01T05:41:57;99924.97;;;1.74;61.67
46007;BME280;31738;50.188;8.524;2023-03-01T05:44:23;99922.31;;;1.74;61.65
46007;BME280;31738;50.188;8.524;2023-03-01T05:46:49;99918.66;;;1.75;61.61
46007;BME280;31738;50.188;8.524;2023-03-01T05:49:15;99919.41;;;1.69;61.52
46007;BME280;31738;50.188;8.524;2023-03-01T05:51:42;99911.75;;;1.74;61.66
46007;BME280;31738;50.188;8.524;2023-03-01T05:54:09;99913.75;;;1.72;61.43
46007;BME280;31738;50.188;8.524;2023-03-01T05:56:35;99914.94;;;1.70;61.46
46007;BME280;31738;50.188;8.524;2023-03-01T05:59:02;99910.47;;;1.70;61.84
46007;BME280;31738;50.188;8.524;2023-03-01T06:01:28;99917.41;;;1.71;61.61
46007;BME280;31738;50.188;8.524;2023-03-01T06:03:55;99916.41;;;1.72;61.37
46007;BME280;31738;50.188;8.524;2023-03-01T06:06:21;99914.75;;;1.71;61.51
46007;BME280;31738;50.188;8.524;2023-03-01T06:08:50;99915.56;;;1.72;61.48
46007;BME280;31738;50.188;8.524;2023-03-01T06:11:15;99921.88;;;1.71;61.42
46007;BME280;31738;50.188;8.524;2023-03-01T06:13:42;99921.88;;;1.71;61.88
46007;BME280;31738;50.188;8.524;2023-03-01T06:16:08;99930.63;;;1.71;61.62
46007;BME280;31738;50.188;8.524;2023-03-01T06:18:33;99924.88;;;1.68;61.55
46007;BME280;31738;50.188;8.524;2023-03-01T06:20:59;99920.06;;;1.71;61.34
46007;BME280;31738;50.188;8.524;2023-03-01T06:23:24;99931.63;;;1.70;61.86
46007;BME280;31738;50.188;8.524;2023-03-01T06:25:51;99930.19;;;1.68;61.74
46007;BME280;31738;50.188;8.524;2023-03-01T06:28:17;99923.69;;;1.70;61.57
46007;BME280;31738;50.188;8.524;2023-03-01T06:30:42;99926.50;;;1.69;61.87
46007;BME280;31738;50.188;8.524;2023-03-01T06:33:08;99926.69;;;1.67;61.67
46007;BME280;31738;50.188;8.524;2023-03-01T06:35:34;99925.34;;;1.71;61.53
46007;BME280;31738;50.188;8.524;2023-03-01T06:38:02;99919.41;;;1.69;61.74
46007;BME280;31738;50.188;8.524;2023-03-01T06:40:28;99916.13;;;1.67;61.53
46007;BME280;31738;50.188;8.524;2023-03-01T06:42:54;99909.84;;;1.68;61.61
46007;BME280;31738;50.188;8.524;2023-03-01T06:45:20;99907.22;;;1.68;62.23
46007;BME280;31738;50.188;8.524;2023-03-01T06:47:46;99907.59;;;1.65;62.04
46007;BME280;31738;50.188;8.524;2023-03-01T06:50:13;99905.53;;;1.67;62.05
46007;BME280;31738;50.188;8.524;2023-03-01T06:52:39;99909.66;;;1.70;62.13
46007;BME280;31738;50.188;8.524;2023-03-01T06:55:05;99907.81;;;1.70;61.87
46007;BME280;31738;50.188;8.524;2023-03-01T06:57:30;99905.38;;;1.69;62.08
46007;BME280;31738;50.188;8.524;2023-03-01T06:59:56;99901.53;;;1.71;62.18
46007;BME280;31738;50.188;8.524;2023-03-01T07:02:21;99904.41;;;1.76;61.75
46007;BME280;31738;50.188;8.524;2023-03-01T07:04:49;99905.69;;;1.81;62.16
46007;BME280;31738;50.188;8.524;2023-03-01T07:07:14;99899.00;;;1.85;62.01
46007;BME280;31738;50.188;8.524;2023-03-01T07:09:40;99902.75;;;1.90;61.70
46007;BME280;31738;50.188;8.524;2023-03-01T07:12:06;99904.00;;;1.94;61.48
46007;BME280;31738;50.188;8.524;2023-03-01T07:14:31;99907.09;;;1.98;61.39
46007;BME280;31738;50.188;8.524;2023-03-01T07:16:57;99907.56;;;2.08;61.06
46007;BME280;31738;50.188;8.524;2023-03-01T07:19:22;99903.53;;;2.12;61.03
46007;BME280;31738;50.188;8.524;2023-03-01T07:21:48;99906.50;;;2.23;60.65
46007;BME280;31738;50.188;8.524;2023-03-01T07:24:14;99905.34;;;2.32;60.52
46007;BME280;31738;50.188;8.524;2023-03-01T07:26:39;99917.63;;;2.40;60.34
46007;BME280;31738;50.188;8.524;2023-03-01T07:29:07;99904.63;;;2.45;60.08
46007;BME280;31738;50.188;8.524;2023-03-01T07:31:32;99909.28;;;2.43;60.48
46007;BME280;31738;50.188;8.524;2023-03-01T07:33:58;99913.63;;;2.50;59.63
46007;BME280;31738;50.188;8.524;2023-03-01T07:36:24;99910.00;;;2.58;59.54
46007;BME280;31738;50.188;8.524;2023-03-01T07:38:50;99895.78;;;2.59;59.65
46007;BME280;31738;50.188;8.524;2023-03-01T07:41:16;99892.88;;;2.54;59.43
46007;BME280;31738;50.188;8.524;2023-03-01T07:43:41;99905.16;;;2.61;59.46
46007;BME280;31738;50.188;8.524;2023-03-01T07:46:07;99906.59;;;2.64;59.05
46007;BME280;31738;50.188;8.524;2023-03-01T07:48:33;99910.91;;;2.65;59.28
46007;BME280;31738;50.188;8.524;2023-03-01T07:51:03;99914.78;;;2.69;59.13
46007;BME280;31738;50.188;8.524;2023-03-01T07:53:28;99919.88;;;2.70;58.73
46007;BME280;31738;50.188;8.524;2023-03-01T07:56:04;99917.44;;;2.69;59.13
46007;BME280;31738;50.188;8.524;2023-03-01T07:58:31;99922.13;;;2.73;59.09
46007;BME280;31738;50.188;8.524;2023-03-01T08:01:01;99920.97;;;2.76;58.85
46007;BME280;31738;50.188;8.524;2023-03-01T08:03:26;99927.06;;;2.76;58.96
46007;BME280;31738;50.188;8.524;2023-03-01T08:05:52;99923.22;;;2.79;59.13
46007;BME280;31738;50.188;8.524;2023-03-01T08:08:17;99924.44;;;2.83;58.75
46007;BME280;31738;50.188;8.524;2023-03-01T08:10:43;99919.16;;;2.83;58.70
46007;BME280;31738;50.188;8.524;2023-03-01T08:13:08;99917.75;;;2.87;58.52
46007;BME280;31738;50.188;8.524;2023-03-01T08:15:34;99914.31;;;2.93;58.46
46007;BME280;31738;50.188;8.524;2023-03-01T08:17:59;99915.56;;;2.97;58.53
46007;BME280;31738;50.188;8.524;2023-03-01T08:20:24;99918.84;;;2.99;58.30
46007;BME280;31738;50.188;8.524;2023-03-01T08:22:50;99927.00;;;3.04;58.49
46007;BME280;31738;50.188;8.524;2023-03-01T08:25:15;99924.59;;;3.09;58.29
46007;BME280;31738;50.188;8.524;2023-03-01T08:27:41;99926.22;;;3.10;58.46
46007;BME280;31738;50.188;8.524;2023-03-01T08:30:07;99929.94;;;3.15;58.64
46007;BME280;31738;50.188;8.524;2023-03-01T08:32:39;99916.50;;;3.17;57.76
46007;BME280;31738;50.188;8.524;2023-03-01T08:35:05;99918.13;;;3.18;57.87
46007;BME280;31738;50.188;8.524;2023-03-01T08:37:30;99914.06;;;3.22;58.10
46007;BME280;31738;50.188;8.524;2023-03-01T08:39:59;99907.97;;;3.21;58.12
46007;BME280;31738;50.188;8.524;2023-03-01T08:42:26;99906.34;;;3.27;57.60
46007;BME280;31738;50.188;8.524;2023-03-01T08:44:51;99900.63;;;3.30;58.04
46007;BME280;31738;50.188;8.524;2023-03-01T08:47:17;99903.91;;;3.32;58.11
46007;BME280;31738;50.188;8.524;2023-03-01T08:49:42;99903.94;;;3.38;57.60
46007;BME280;31738;50.188;8.524;2023-03-01T08:52:07;99912.09;;;3.43;57.83
46007;BME280;31738;50.188;8.524;2023-03-01T08:54:33;99916.81;;;3.48;58.00
46007;BME280;31738;50.188;8.524;2023-03-01T08:57:01;99903.59;;;3.54;57.80
46007;BME280;31738;50.188;8.524;2023-03-01T08:59:27;99908.09;;;3.61;57.94
46007;BME280;31738;50.188;8.524;2023-03-01T09:01:53;99898.31;;;3.68;57.48
46007;BME280;31738;50.188;8.524;2023-03-01T09:04:19;99888.97;;;3.78;57.56
46007;BME280;31738;50.188;8.524;2023-03-01T09:06:44;99890.59;;;3.86;57.24
46007;BME280;31738;50.188;8.524;2023-03-01T09:09:19;99888.38;;;4.02;56.99
46007;BME280;31738;50.188;8.524;2023-03-01T09:11:45;99891.06;;;4.15;56.26
46007;BME280;31738;50.188;8.524;2023-03-01T09:14:15;99890.63;;;4.25;56.67
46007;BME280;31738;50.188;8.524;2023-03-01T09:16:41;99892.47;;;4.37;56.23
46007;BME280;31738;50.188;8.524;2023-03-01T09:19:06;99894.09;;;4.51;55.93
46007;BME280;31738;50.188;8.524;2023-03-01T09:21:32;99903.91;;;4.57;55.57
46007;BME280;31738;50.188;8.524;2023-03-01T09:23:58;99898.38;;;4.59;54.95
46007;BME280;31738;50.188;8.524;2023-03-01T09:26:24;99892.03;;;4.66;54.16
46007;BME280;31738;50.188;8.524;2023-03-01T09:28:53;99897.72;;;4.89;54.84
46007;BME280;31738;50.188;8.524;2023-03-01T09:31:20;99899.53;;;5.08;54.56
46007;BME280;31738;50.188;8.524;2023-03-01T09:33:47;99899.09;;;5.18;54.43
46007;BME280;31738;50.188;8.524;2023-03-01T09:36:16;99888.19;;;5.26;52.94
46007;BME280;31738;50.188;8.524;2023-03-01T09:38:42;99888.81;;;5.28;53.13
46007;BME280;31738;50.188;8.524;2023-03-01T09:47:02;99890.78;;;5.46;51.85
46007;BME280;31738;50.188;8.524;2023-03-01T09:49:30;99901.84;;;5.43;52.12
46007;BME280;31738;50.188;8.524;2023-03-01T09:54:45;99904.53;;;5.74;51.26
46007;BME280;31738;50.188;8.524;2023-03-01T10:05:13;99916.44;;;6.09;51.00
46007;BME280;31738;50.188;8.524;2023-03-01T10:10:32;99914.00;;;6.32;51.00
46007;BME280;31738;50.188;8.524;2023-03-01T10:13:09;99909.69;;;6.37;50.59
46007;BME280;31738;50.188;8.524;2023-03-01T10:15:40;99925.09;;;6.29;50.62
46007;BME280;31738;50.188;8.524;2023-03-01T10:18:17;99929.03;;;6.26;50.01
46007;BME280;31738;50.188;8.524;2023-03-01T10:23:19;99915.31;;;6.47;49.81
46007;BME280;31738;50.188;8.524;2023-03-01T10:25:56;99919.56;;;6.55;49.71
46007;BME280;31738;50.188;8.524;2023-03-01T10:28:47;99913.38;;;6.61;49.80
46007;BME280;31738;50.188;8.524;2023-03-01T10:31:19;99923.97;;;6.67;49.48
46007;BME280;31738;50.188;8.524;2023-03-01T10:33:45;99918.53;;;6.80;49.78
46007;BME280;31738;50.188;8.524;2023-03-01T10:36:13;99917.72;;;6.80;49.33
46007;BME280;31738;50.188;8.524;2023-03-01T10:38:51;99917.34;;;6.94;49.30
46007;BME280;31738;50.188;8.524;2023-03-01T10:41:19;99909.88;;;7.03;48.93
46007;BME280;31738;50.188;8.524;2023-03-01T10:43:49;99908.22;;;7.02;49.18
46007;BME280;31738;50.188;8.524;2023-03-01T10:46:30;99919.50;;;7.04;49.29
46007;BME280;31738;50.188;8.524;2023-03-01T10:49:06;99923.22;;;7.03;48.02
46007;BME280;31738;50.188;8.524;2023-03-01T10:51:32;99917.81;;;7.10;48.76
46007;BME280;31738;50.188;8.524;2023-03-01T10:53:57;99913.94;;;7.24;48.79
46007;BME280;31738;50.188;8.524;2023-03-01T10:56:23;99918.63;;;7.28;48.43
46007;BME280;31738;50.188;8.524;2023-03-01T10:58:58;99912.41;;;7.34;48.69
46007;BME280;31738;50.188;8.524;2023-03-01T11:01:35;99917.59;;;7.29;47.85
46007;BME280;31738;50.188;8.524;2023-03-01T11:06:37;99911.38;;;7.35;47.44
46007;BME280;31738;50.188;8.524;2023-03-01T11:09:21;99902.09;;;7.38;47.26
46007;BME280;31738;50.188;8.524;2023-03-01T11:11:55;99887.03;;;7.43;47.46
46007;BME280;31738;50.188;8.524;2023-03-01T11:14:26;99888.13;;;7.54;47.13
46007;BME280;31738;50.188;8.524;2023-03-01T11:17:01;99882.94;;;7.59;46.81
46007;BME280;31738;50.188;8.524;2023-03-01T11:19:28;99888.53;;;7.69;46.74
46007;BME280;31738;50.188;8.524;2023-03-01T11:21:59;99885.41;;;7.72;46.49
46007;BME280;31738;50.188;8.524;2023-03-01T11:24:39;99879.84;;;7.73;46.66
46007;BME280;31738;50.188;8.524;2023-03-01T11:27:16;99879.53;;;7.81;47.10
46007;BME280;31738;50.188;8.524;2023-03-01T11:29:45;99874.44;;;7.91;46.42
46007;BME280;31738;50.188;8.524;2023-03-01T11:32:16;99872.63;;;8.03;46.51
46007;BME280;31738;50.188;8.524;2023-03-01T11:34:53;99885.28;;;7.96;45.38
46007;BME280;31738;50.188;8.524;2023-03-01T11:37:21;99876.34;;;8.02;45.75
46007;BME280;31738;50.188;8.524;2023-03-01T11:39:55;99877.50;;;8.06;45.71
46007;BME280;31738;50.188;8.524;2023-03-01T11:42:44;99874.06;;;8.17;45.62
46007;BME280;31738;50.188;8.524;2023-03-01T11:45:12;99868.88;;;8.22;45.84
46007;BME280;31738;50.188;8.524;2023-03-01T11:47:51;99873.59;;;8.20;44.71
46007;BME280;31738;50.188;8.524;2023-03-01T11:50:47;99869.56;;;8.29;45.11
46007;BME280;31738;50.188;8.524;2023-03-01T11:53:46;99872.16;;;8.06;46.03
46007;BME280;31738;50.188;8.524;2023-03-01T12:04:42;99856.03;;;8.13;44.38
46007;BME280;31738;50.188;8.524;2023-03-01T12:31:00;99825.75;;;8.42;44.93
46007;BME280;31738;50.188;8.524;2023-03-01T12:36:27;99828.78;;;8.45;43.91
46007;BME280;31738;50.188;8.524;2023-03-01T12:45:04;99810.19;;;8.50;43.95
46007;BME280;31738;50.188;8.524;2023-03-01T12:47:56;99803.34;;;8.54;44.48
46007;BME280;31738;50.188;8.524;2023-03-01T12:50:27;99795.31;;;8.54;45.06
46007;BME280;31738;50.188;8.524;2023-03-01T12:52:57;99796.84;;;8.50;44.46
46007;BME280;31738;50.188;8.524;2023-03-01T12:55:32;99807.75;;;8.49;43.92
46007;BME280;31738;50.188;8.524;2023-03-01T12:58:05;99805.06;;;8.37;44.14
46007;BME280;31738;50.188;8.524;2023-03-01T13:00:45;99798.81;;;8.43;43.90
46007;BME280;31738;50.188;8.524;2023-03-01T13:08:56;99794.38;;;8.37;44.36
46007;BME280;31738;50.188;8.524;2023-03-01T13:11:26;99785.34;;;8.38;44.12
46007;BME280;31738;50.188;8.524;2023-03-01T13:13:51;99785.09;;;8.40;44.43
46007;BME280;31738;50.188;8.524;2023-03-01T13:19:18;99792.06;;;8.29;43.32
46007;BME280;31738;50.188;8.524;2023-03-01T13:21:45;99783.81;;;8.31;44.00
46007;BME280;31738;50.188;8.524;2023-03-01T13:24:40;99796.03;;;8.27;42.61
46007;BME280;31738;50.188;8.524;2023-03-01T13:29:51;99776.59;;;8.31;44.18
46007;BME280;31738;50.188;8.524;2023-03-01T13:32:31;99776.03;;;8.29;44.19
46007;BME280;31738;50.188;8.524;2023-03-01T13:37:44;99760.09;;;8.34;44.47
46007;BME280;31738;50.188;8.524;2023-03-01T13:42:45;99763.47;;;8.41;44.80
46007;BME280;31738;50.188;8.524;2023-03-01T13:47:44;99753.25;;;8.38;44.31
46007;BME280;31738;50.188;8.524;2023-03-01T13:50:35;99745.13;;;8.33;44.27
46007;BME280;31738;50.188;8.524;2023-03-01T13:53:05;99751.41;;;8.27;44.57
46007;BME280;31738;50.188;8.524;2023-03-01T13:55:40;99746.63;;;8.29;43.54
46007;BME280;31738;50.188;8.524;2023-03-01T14:00:46;99730.94;;;8.21;44.38
46007;BME280;31738;50.188;8.524;2023-03-01T14:03:18;99737.91;;;8.22;44.24
46007;BME280;31738;50.188;8.524;2023-03-01T14:08:27;99727.91;;;8.29;44.33
46007;BME280;31738;50.188;8.524;2023-03-01T14:19:28;99722.56;;;8.29;43.52
46007;BME280;31738;50.188;8.524;2023-03-01T14:24:50;99737.44;;;8.25;43.51
46007;BME280;31738;50.188;8.524;2023-03-01T14:27:18;99742.78;;;8.25;43.49
46007;BME280;31738;50.188;8.524;2023-03-01T14:29:45;99736.63;;;8.25;43.51
46007;BME280;31738;50.188;8.524;2023-03-01T14:32:20;99747.66;;;8.05;42.99
46007;BME280;31738;50.188;8.524;2023-03-01T14:34:50;99728.34;;;8.03;44.49
46007;BME280;31738;50.188;8.524;2023-03-01T14:37:31;99730.69;;;8.11;43.44
46007;BME280;31738;50.188;8.524;2023-03-01T14:39:58;99731.16;;;8.08;43.65
46007;BME280;31738;50.188;8.524;2023-03-01T14:42:28;99720.00;;;8.11;43.64
46007;BME280;31738;50.188;8.524;2023-03-01T14:44:56;99730.56;;;8.18;43.41
46007;BME280;31738;50.188;8.524;2023-03-01T14:47:31;99723.16;;;8.20;43.13
46007;BME280;31738;50.188;8.524;2023-03-01T14:52:39;99725.81;;;8.08;43.39
46007;BME280;31738;50.188;8.524;2023-03-01T14:55:13;99712.69;;;8.18;43.61
46007;BME280;31738;50.188;8.524;2023-03-01T14:57:43;99718.34;;;8.22;43.38
46007;BME280;31738;50.188;8.524;2023-03-01T15:00:26;99720.59;;;8.25;43.12
46007;BME280;31738;50.188;8.524;2023-03-01T15:02:54;99711.19;;;8.22;43.65
46007;BME280;31738;50.188;8.524;2023-03-01T15:05:29;99716.53;;;8.22;43.03
46007;BME280;31738;50.188;8.524;2023-03-01T15:07:57;99715.91;;;8.20;42.88
46007;BME280;31738;50.188;8.524;2023-03-01T15:10:29;99710.25;;;8.28;43.07
46007;BME280;31738;50.188;8.524;2023-03-01T15:13:09;99717.91;;;8.25;42.54